sensor_id;sensor_type;location;lat;lon;timestamp;P1;durP1;ratioP1;P2;durP2;ratioP2
291;SDS011;23311;48.776;9.162;2024-02-14T00:00:54;5.00;;;3.30;;
291;SDS011;23311;48.776;9.162;2024-02-14T00:03:24;3.37;;;3.17;;
291;SDS011;23311;48.776;9.162;2024-02-14T00:05:55;5.63;;;3.90;;
291;SDS011;23311;48.776;9.162;2024-02-14T00:08:23;6.17;;;3.83;;
291;SDS011;23311;48.776;9.162;2024-02-14T00:10:53;5.57;;;3.87;;
291;SDS011;23311;48.776;9.162;2024-02-14T00:13:21;5.00;;;2.90;;
291;SDS011;23311;48.776;9.162;2024-02-14T00:15:54;4.50;;;3.90;;
291;SDS011;23311;48.776;9.162;2024-02-14T00:18:25;6.60;;;4.50;;
291;SDS011;23311;48.776;9.162;2024-02-14T00:21:16;3.10;;;2.40;;
291;SDS011;23311;48.776;9.162;2024-02-14T00:23:45;4.60;;;3.17;;
291;SDS011;23311;48.776;9.162;2024-02-14T00:26:15;4.20;;;2.70;;
291;SDS011;23311;48.776;9.162;2024-02-14T00:28:45;3.70;;;2.93;;
291;SDS011;23311;48.776;9.162;2024-02-14T00:31:15;4.00;;;3.20;;
291;SDS011;23311;48.776;9.162;2024-02-14T00:34:14;5.40;;;3.50;;
291;SDS011;23311;48.776;9.162;2024-02-14T00:37:03;6.47;;;3.40;;
291;SDS011;23311;48.776;9.162;2024-02-14T00:39:31;3.80;;;2.70;;
291;SDS011;23311;48.776;9.162;2024-02-14T00:42:21;5.50;;;2.97;;
291;SDS011;23311;48.776;9.162;2024-02-14T00:44:49;4.47;;;2.67;;
291;SDS011;23311;48.776;9.162;2024-02-14T00:47:41;6.93;;;2.93;;
291;SDS011;23311;48.776;9.162;2024-02-14T00:50:09;4.00;;;2.50;;
291;SDS011;23311;48.776;9.162;2024-02-14T00:53:02;4.43;;;2.80;;
291;SDS011;23311;48.776;9.162;2024-02-14T00:55:30;5.80;;;2.63;;
291;SDS011;23311;48.776;9.162;2024-02-14T00:58:43;3.80;;;2.70;;
291;SDS011;23311;48.776;9.162;2024-02-14T01:01:12;7.07;;;3.20;;
291;SDS011;23311;48.776;9.162;2024-02-14T01:03:41;3.53;;;2.40;;
291;SDS011;23311;48.776;9.162;2024-02-14T01:06:09;5.70;;;3.23;;
291;SDS011;23311;48.776;9.162;2024-02-14T01:08:38;5.03;;;1.93;;
291;SDS011;23311;48.776;9.162;2024-02-14T01:11:06;3.47;;;2.70;;
291;SDS011;23311;48.776;9.162;2024-02-14T01:13:34;5.70;;;3.03;;
291;SDS011;23311;48.776;9.162;2024-02-14T01:16:02;7.30;;;3.53;;
291;SDS011;23311;48.776;9.162;2024-02-14T01:18:31;3.50;;;2.40;;
291;SDS011;23311;48.776;9.162;2024-02-14T01:21:01;3.23;;;2.27;;
291;SDS011;23311;48.776;9.162;2024-02-14T01:23:29;4.40;;;3.27;;
291;SDS011;23311;48.776;9.162;2024-02-14T01:25:58;5.13;;;3.30;;
291;SDS011;23311;48.776;9.162;2024-02-14T01:28:26;6.13;;;3.60;;
291;SDS011;23311;48.776;9.162;2024-02-14T01:30:54;4.90;;;2.80;;
291;SDS011;23311;48.776;9.162;2024-02-14T01:33:23;7.90;;;4.10;;
291;SDS011;23311;48.776;9.162;2024-02-14T01:35:51;2.87;;;2.57;;
291;SDS011;23311;48.776;9.162;2024-02-14T01:38:21;6.03;;;3.30;;
291;SDS011;23311;48.776;9.162;2024-02-14T01:40:49;5.90;;;3.73;;
291;SDS011;23311;48.776;9.162;2024-02-14T01:43:19;6.50;;;3.30;;
291;SDS011;23311;48.776;9.162;2024-02-14T01:45:47;4.23;;;2.47;;
291;SDS011;23311;48.776;9.162;2024-02-14T01:48:19;4.43;;;2.57;;
291;SDS011;23311;48.776;9.162;2024-02-14T01:50:47;5.80;;;2.90;;
291;SDS011;23311;48.776;9.162;2024-02-14T01:53:16;4.40;;;2.63;;
291;SDS011;23311;48.776;9.162;2024-02-14T01:55:45;4.67;;;2.20;;
291;SDS011;23311;48.776;9.162;2024-02-14T01:58:13;5.70;;;3.23;;
291;SDS011;23311;48.776;9.162;2024-02-14T02:00:42;3.70;;;2.60;;
291;SDS011;23311;48.776;9.162;2024-02-14T02:03:11;3.43;;;2.50;;
291;SDS011;23311;48.776;9.162;2024-02-14T02:05:41;4.17;;;2.80;;
291;SDS011;23311;48.776;9.162;2024-02-14T02:08:09;7.07;;;4.60;;
291;SDS011;23311;48.776;9.162;2024-02-14T02:10:37;9.80;;;2.80;;
291;SDS011;23311;48.776;9.162;2024-02-14T02:13:30;5.30;;;3.03;;
291;SDS011;23311;48.776;9.162;2024-02-14T02:16:18;4.90;;;3.17;;
291;SDS011;23311;48.776;9.162;2024-02-14T02:19:08;2.70;;;2.23;;
291;SDS011;23311;48.776;9.162;2024-02-14T02:21:56;4.03;;;2.53;;
291;SDS011;23311;48.776;9.162;2024-02-14T02:24:27;5.33;;;2.67;;
291;SDS011;23311;48.776;9.162;2024-02-14T02:26:55;3.60;;;2.13;;
291;SDS011;23311;48.776;9.162;2024-02-14T02:29:43;3.83;;;2.40;;
291;SDS011;23311;48.776;9.162;2024-02-14T02:32:12;4.40;;;2.57;;
291;SDS011;23311;48.776;9.162;2024-02-14T02:34:42;5.37;;;3.63;;
291;SDS011;23311;48.776;9.162;2024-02-14T02:37:12;3.00;;;2.80;;
291;SDS011;23311;48.776;9.162;2024-02-14T02:40:05;3.00;;;2.30;;
291;SDS011;23311;48.776;9.162;2024-02-14T02:42:58;5.10;;;3.40;;
291;SDS011;23311;48.776;9.162;2024-02-14T02:45:46;5.93;;;2.70;;
291;SDS011;23311;48.776;9.162;2024-02-14T02:48:35;3.27;;;2.27;;
291;SDS011;23311;48.776;9.162;2024-02-14T02:51:05;5.13;;;3.20;;
291;SDS011;23311;48.776;9.162;2024-02-14T02:54:08;3.70;;;2.80;;
291;SDS011;23311;48.776;9.162;2024-02-14T02:56:59;4.40;;;3.10;;
291;SDS011;23311;48.776;9.162;2024-02-14T02:59:29;6.00;;;3.17;;
291;SDS011;23311;48.776;9.162;2024-02-14T03:01:59;3.30;;;2.70;;
291;SDS011;23311;48.776;9.162;2024-02-14T03:04:47;3.90;;;3.13;;
291;SDS011;23311;48.776;9.162;2024-02-14T03:07:38;3.53;;;2.60;;
291;SDS011;23311;48.776;9.162;2024-02-14T03:10:26;3.10;;;2.83;;
291;SDS011;23311;48.776;9.162;2024-02-14T03:13:17;3.00;;;2.57;;
291;SDS011;23311;48.776;9.162;2024-02-14T03:16:06;3.50;;;2.30;;
291;SDS011;23311;48.776;9.162;2024-02-14T03:18:34;8.93;;;2.83;;
291;SDS011;23311;48.776;9.162;2024-02-14T03:21:05;6.50;;;2.57;;
291;SDS011;23311;48.776;9.162;2024-02-14T03:23:33;4.57;;;2.20;;
291;SDS011;23311;48.776;9.162;2024-02-14T03:26:02;3.53;;;2.47;;
291;SDS011;23311;48.776;9.162;2024-02-14T03:28:35;3.90;;;2.80;;
291;SDS011;23311;48.776;9.162;2024-02-14T03:31:03;4.23;;;2.87;;
291;SDS011;23311;48.776;9.162;2024-02-14T03:33:31;5.23;;;2.60;;
291;SDS011;23311;48.776;9.162;2024-02-14T03:36:00;2.87;;;2.20;;
291;SDS011;23311;48.776;9.162;2024-02-14T03:38:29;2.90;;;2.23;;
291;SDS011;23311;48.776;9.162;2024-02-14T03:40:58;3.40;;;2.57;;
291;SDS011;23311;48.776;9.162;2024-02-14T03:43:25;3.60;;;3.07;;
291;SDS011;23311;48.776;9.162;2024-02-14T03:45:55;3.40;;;2.33;;
291;SDS011;23311;48.776;9.162;2024-02-14T03:48:23;4.90;;;2.50;;
291;SDS011;23311;48.776;9.162;2024-02-14T03:50:52;4.53;;;3.17;;
291;SDS011;23311;48.776;9.162;2024-02-14T03:53:20;3.20;;;2.43;;
291;SDS011;23311;48.776;9.162;2024-02-14T03:55:48;3.77;;;2.63;;
291;SDS011;23311;48.776;9.162;2024-02-14T03:58:19;5.20;;;2.80;;
291;SDS011;23311;48.776;9.162;2024-02-14T04:00:49;3.30;;;2.30;;
291;SDS011;23311;48.776;9.162;2024-02-14T04:03:20;3.87;;;3.10;;
291;SDS011;23311;48.776;9.162;2024-02-14T04:05:48;4.00;;;2.10;;
291;SDS011;23311;48.776;9.162;2024-02-14T04:08:16;4.03;;;2.60;;
291;SDS011;23311;48.776;9.162;2024-02-14T04:10:44;4.70;;;2.43;;
291;SDS011;23311;48.776;9.162;2024-02-14T04:13:12;5.20;;;2.23;;
291;SDS011;23311;48.776;9.162;2024-02-14T04:15:41;2.63;;;2.37;;
291;SDS011;23311;48.776;9.162;2024-02-14T04:18:11;5.83;;;2.73;;
291;SDS011;23311;48.776;9.162;2024-02-14T04:20:40;3.87;;;2.87;;
291;SDS011;23311;48.776;9.162;2024-02-14T04:23:10;4.27;;;2.63;;
291;SDS011;23311;48.776;9.162;2024-02-14T04:25:38;3.60;;;2.27;;
291;SDS011;23311;48.776;9.162;2024-02-14T04:28:07;4.77;;;3.00;;
291;SDS011;23311;48.776;9.162;2024-02-14T04:30:38;5.30;;;2.73;;
291;SDS011;23311;48.776;9.162;2024-02-14T04:33:11;4.90;;;2.63;;
291;SDS011;23311;48.776;9.162;2024-02-14T04:35:42;3.67;;;2.43;;
291;SDS011;23311;48.776;9.162;2024-02-14T04:38:10;5.30;;;2.50;;
291;SDS011;23311;48.776;9.162;2024-02-14T04:40:38;3.00;;;2.30;;
291;SDS011;23311;48.776;9.162;2024-02-14T04:43:07;3.20;;;2.10;;
291;SDS011;23311;48.776;9.162;2024-02-14T04:45:35;3.47;;;2.50;;
291;SDS011;23311;48.776;9.162;2024-02-14T04:48:06;3.13;;;2.70;;
291;SDS011;23311;48.776;9.162;2024-02-14T04:50:35;3.03;;;2.00;;
291;SDS011;23311;48.776;9.162;2024-02-14T04:53:05;6.03;;;2.27;;
291;SDS011;23311;48.776;9.162;2024-02-14T04:55:33;2.60;;;2.37;;
291;SDS011;23311;48.776;9.162;2024-02-14T04:58:01;3.57;;;2.03;;
291;SDS011;23311;48.776;9.162;2024-02-14T05:00:31;3.17;;;2.10;;
291;SDS011;23311;48.776;9.162;2024-02-14T05:02:59;3.17;;;2.00;;
291;SDS011;23311;48.776;9.162;2024-02-14T05:05:28;4.23;;;2.60;;
291;SDS011;23311;48.776;9.162;2024-02-14T05:07:58;5.13;;;2.50;;
291;SDS011;23311;48.776;9.162;2024-02-14T05:10:27;3.43;;;1.87;;
291;SDS011;23311;48.776;9.162;2024-02-14T05:12:56;5.33;;;2.10;;
291;SDS011;23311;48.776;9.162;2024-02-14T05:15:24;2.57;;;1.90;;
291;SDS011;23311;48.776;9.162;2024-02-14T05:17:52;3.70;;;1.93;;
291;SDS011;23311;48.776;9.162;2024-02-14T05:20:23;4.70;;;2.30;;
291;SDS011;23311;48.776;9.162;2024-02-14T05:22:51;3.60;;;2.27;;
291;SDS011;23311;48.776;9.162;2024-02-14T05:25:19;2.60;;;2.00;;
291;SDS011;23311;48.776;9.162;2024-02-14T05:27:55;3.20;;;2.20;;
291;SDS011;23311;48.776;9.162;2024-02-14T05:30:24;3.40;;;2.37;;
291;SDS011;23311;48.776;9.162;2024-02-14T05:33:03;2.57;;;1.70;;
291;SDS011;23311;48.776;9.162;2024-02-14T05:35:32;2.60;;;2.27;;
291;SDS011;23311;48.776;9.162;2024-02-14T05:38:00;4.10;;;2.50;;
291;SDS011;23311;48.776;9.162;2024-02-14T05:40:30;3.90;;;2.83;;
291;SDS011;23311;48.776;9.162;2024-02-14T05:43:01;2.83;;;2.43;;
291;SDS011;23311;48.776;9.162;2024-02-14T05:45:29;4.57;;;2.50;;
291;SDS011;23311;48.776;9.162;2024-02-14T05:47:57;3.63;;;2.30;;
291;SDS011;23311;48.776;9.162;2024-02-14T05:50:25;5.67;;;2.30;;
291;SDS011;23311;48.776;9.162;2024-02-14T05:52:54;3.70;;;2.60;;
291;SDS011;23311;48.776;9.162;2024-02-14T05:55:23;2.67;;;2.53;;
291;SDS011;23311;48.776;9.162;2024-02-14T05:57:55;3.00;;;2.30;;
291;SDS011;23311;48.776;9.162;2024-02-14T06:00:26;3.67;;;2.33;;
291;SDS011;23311;48.776;9.162;2024-02-14T06:02:55;2.70;;;2.30;;
291;SDS011;23311;48.776;9.162;2024-02-14T06:05:23;5.60;;;1.93;;
291;SDS011;23311;48.776;9.162;2024-02-14T06:07:51;5.57;;;2.30;;
291;SDS011;23311;48.776;9.162;2024-02-14T06:10:19;4.13;;;2.27;;
291;SDS011;23311;48.776;9.162;2024-02-14T06:12:47;2.90;;;2.03;;
291;SDS011;23311;48.776;9.162;2024-02-14T06:15:16;4.67;;;2.63;;
291;SDS011;23311;48.776;9.162;2024-02-14T06:17:45;2.47;;;1.90;;
291;SDS011;23311;48.776;9.162;2024-02-14T06:20:14;3.90;;;2.43;;
291;SDS011;23311;48.776;9.162;2024-02-14T06:22:42;3.70;;;2.53;;
291;SDS011;23311;48.776;9.162;2024-02-14T06:25:23;4.30;;;1.73;;
291;SDS011;23311;48.776;9.162;2024-02-14T06:27:58;3.67;;;2.63;;
291;SDS011;23311;48.776;9.162;2024-02-14T06:30:26;3.87;;;2.30;;
291;SDS011;23311;48.776;9.162;2024-02-14T06:32:59;4.03;;;2.13;;
291;SDS011;23311;48.776;9.162;2024-02-14T06:35:30;3.10;;;2.90;;
291;SDS011;23311;48.776;9.162;2024-02-14T06:37:58;2.23;;;1.77;;
291;SDS011;23311;48.776;9.162;2024-02-14T06:40:30;2.40;;;1.67;;
291;SDS011;23311;48.776;9.162;2024-02-14T06:42:59;3.53;;;2.50;;
291;SDS011;23311;48.776;9.162;2024-02-14T06:45:28;3.00;;;2.00;;
291;SDS011;23311;48.776;9.162;2024-02-14T06:48:07;4.80;;;2.20;;
291;SDS011;23311;48.776;9.162;2024-02-14T06:50:36;4.67;;;1.93;;
291;SDS011;23311;48.776;9.162;2024-02-14T06:53:05;3.93;;;1.90;;
291;SDS011;23311;48.776;9.162;2024-02-14T06:55:34;5.20;;;2.20;;
291;SDS011;23311;48.776;9.162;2024-02-14T06:58:02;5.00;;;2.80;;
291;SDS011;23311;48.776;9.162;2024-02-14T07:00:31;6.47;;;2.03;;
291;SDS011;23311;48.776;9.162;2024-02-14T07:02:59;3.70;;;2.53;;
291;SDS011;23311;48.776;9.162;2024-02-14T07:05:29;3.33;;;1.90;;
291;SDS011;23311;48.776;9.162;2024-02-14T07:07:57;3.77;;;2.20;;
291;SDS011;23311;48.776;9.162;2024-02-14T07:10:25;2.43;;;1.80;;
291;SDS011;23311;48.776;9.162;2024-02-14T07:12:54;2.80;;;1.80;;
291;SDS011;23311;48.776;9.162;2024-02-14T07:15:22;2.43;;;1.53;;
291;SDS011;23311;48.776;9.162;2024-02-14T07:17:55;6.77;;;1.90;;
291;SDS011;23311;48.776;9.162;2024-02-14T07:20:25;3.43;;;2.27;;
291;SDS011;23311;48.776;9.162;2024-02-14T07:22:55;5.63;;;2.57;;
291;SDS011;23311;48.776;9.162;2024-02-14T07:25:24;6.67;;;3.33;;
291;SDS011;23311;48.776;9.162;2024-02-14T07:27:52;3.70;;;2.50;;
291;SDS011;23311;48.776;9.162;2024-02-14T07:30:20;5.23;;;1.87;;
291;SDS011;23311;48.776;9.162;2024-02-14T07:32:49;3.20;;;1.63;;
291;SDS011;23311;48.776;9.162;2024-02-14T07:35:18;3.47;;;1.70;;
291;SDS011;23311;48.776;9.162;2024-02-14T07:37:46;4.33;;;2.20;;
291;SDS011;23311;48.776;9.162;2024-02-14T07:40:16;3.50;;;1.30;;
291;SDS011;23311;48.776;9.162;2024-02-14T07:43:02;2.47;;;1.30;;
291;SDS011;23311;48.776;9.162;2024-02-14T07:45:32;4.00;;;1.50;;
291;SDS011;23311;48.776;9.162;2024-02-14T07:48:01;2.10;;;1.23;;
291;SDS011;23311;48.776;9.162;2024-02-14T07:50:29;2.80;;;1.37;;
291;SDS011;23311;48.776;9.162;2024-02-14T07:52:58;2.40;;;1.73;;
291;SDS011;23311;48.776;9.162;2024-02-14T07:55:28;3.97;;;1.30;;
291;SDS011;23311;48.776;9.162;2024-02-14T07:57:56;4.20;;;1.63;;
291;SDS011;23311;48.776;9.162;2024-02-14T08:00:26;2.83;;;1.80;;
291;SDS011;23311;48.776;9.162;2024-02-14T08:02:54;3.60;;;1.80;;
291;SDS011;23311;48.776;9.162;2024-02-14T08:05:22;3.53;;;1.57;;
291;SDS011;23311;48.776;9.162;2024-02-14T08:07:50;2.47;;;1.40;;
291;SDS011;23311;48.776;9.162;2024-02-14T08:10:18;5.10;;;2.20;;
291;SDS011;23311;48.776;9.162;2024-02-14T08:12:48;3.53;;;1.60;;
291;SDS011;23311;48.776;9.162;2024-02-14T08:15:16;4.17;;;2.03;;
291;SDS011;23311;48.776;9.162;2024-02-14T08:17:44;7.23;;;2.63;;
291;SDS011;23311;48.776;9.162;2024-02-14T08:20:14;2.73;;;1.70;;
291;SDS011;23311;48.776;9.162;2024-02-14T08:22:54;4.20;;;1.87;;
291;SDS011;23311;48.776;9.162;2024-02-14T08:25:23;5.00;;;1.63;;
291;SDS011;23311;48.776;9.162;2024-02-14T08:27:52;4.13;;;2.40;;
291;SDS011;23311;48.776;9.162;2024-02-14T08:30:20;3.00;;;2.40;;
291;SDS011;23311;48.776;9.162;2024-02-14T08:32:49;2.83;;;1.97;;
291;SDS011;23311;48.776;9.162;2024-02-14T08:35:17;5.53;;;2.70;;
291;SDS011;23311;48.776;9.162;2024-02-14T08:37:45;4.30;;;2.80;;
291;SDS011;23311;48.776;9.162;2024-02-14T08:40:14;3.57;;;1.40;;
291;SDS011;23311;48.776;9.162;2024-02-14T08:42:42;3.30;;;1.60;;
291;SDS011;23311;48.776;9.162;2024-02-14T08:45:12;2.37;;;1.40;;
291;SDS011;23311;48.776;9.162;2024-02-14T08:47:43;3.03;;;1.33;;
291;SDS011;23311;48.776;9.162;2024-02-14T08:50:11;3.43;;;1.93;;
291;SDS011;23311;48.776;9.162;2024-02-14T08:52:40;4.90;;;1.50;;
291;SDS011;23311;48.776;9.162;2024-02-14T08:55:09;2.17;;;1.30;;
291;SDS011;23311;48.776;9.162;2024-02-14T08:57:44;2.90;;;1.50;;
291;SDS011;23311;48.776;9.162;2024-02-14T09:00:16;2.20;;;1.80;;
291;SDS011;23311;48.776;9.162;2024-02-14T09:02:46;2.43;;;1.07;;
291;SDS011;23311;48.776;9.162;2024-02-14T09:05:15;3.57;;;1.57;;
291;SDS011;23311;48.776;9.162;2024-02-14T09:07:45;2.67;;;1.60;;
291;SDS011;23311;48.776;9.162;2024-02-14T09:10:13;4.47;;;1.73;;
291;SDS011;23311;48.776;9.162;2024-02-14T09:12:42;2.07;;;1.13;;
291;SDS011;23311;48.776;9.162;2024-02-14T09:15:10;2.53;;;1.77;;
291;SDS011;23311;48.776;9.162;2024-02-14T09:17:41;4.53;;;1.37;;
291;SDS011;23311;48.776;9.162;2024-02-14T09:20:09;3.13;;;1.63;;
291;SDS011;23311;48.776;9.162;2024-02-14T09:22:41;2.20;;;1.50;;
291;SDS011;23311;48.776;9.162;2024-02-14T09:25:09;2.80;;;1.70;;
291;SDS011;23311;48.776;9.162;2024-02-14T09:27:37;2.80;;;1.90;;
291;SDS011;23311;48.776;9.162;2024-02-14T09:30:06;1.97;;;1.40;;
291;SDS011;23311;48.776;9.162;2024-02-14T09:32:51;3.03;;;1.67;;
291;SDS011;23311;48.776;9.162;2024-02-14T09:35:20;3.30;;;1.60;;
291;SDS011;23311;48.776;9.162;2024-02-14T09:37:48;2.37;;;1.50;;
291;SDS011;23311;48.776;9.162;2024-02-14T09:40:16;2.87;;;1.40;;
291;SDS011;23311;48.776;9.162;2024-02-14T09:42:44;2.70;;;1.50;;
291;SDS011;23311;48.776;9.162;2024-02-14T09:45:18;4.43;;;1.90;;
291;SDS011;23311;48.776;9.162;2024-02-14T09:47:52;5.27;;;1.50;;
291;SDS011;23311;48.776;9.162;2024-02-14T09:50:20;3.60;;;2.13;;
291;SDS011;23311;48.776;9.162;2024-02-14T09:52:49;1.57;;;1.20;;
291;SDS011;23311;48.776;9.162;2024-02-14T09:55:17;2.10;;;1.30;;
291;SDS011;23311;48.776;9.162;2024-02-14T09:57:45;2.00;;;1.30;;
291;SDS011;23311;48.776;9.162;2024-02-14T10:00:16;4.90;;;1.60;;
291;SDS011;23311;48.776;9.162;2024-02-14T10:02:45;1.87;;;1.37;;
291;SDS011;23311;48.776;9.162;2024-02-14T10:05:15;3.80;;;1.60;;
291;SDS011;23311;48.776;9.162;2024-02-14T10:07:43;7.60;;;1.87;;
291;SDS011;23311;48.776;9.162;2024-02-14T10:10:13;6.10;;;1.40;;
291;SDS011;23311;48.776;9.162;2024-02-14T10:12:42;5.23;;;1.40;;
291;SDS011;23311;48.776;9.162;2024-02-14T10:15:10;3.30;;;1.40;;
291;SDS011;23311;48.776;9.162;2024-02-14T10:17:38;3.90;;;1.30;;
291;SDS011;23311;48.776;9.162;2024-02-14T10:20:08;1.93;;;1.00;;
291;SDS011;23311;48.776;9.162;2024-02-14T10:22:39;2.10;;;1.17;;
291;SDS011;23311;48.776;9.162;2024-02-14T10:25:07;2.07;;;1.30;;
291;SDS011;23311;48.776;9.162;2024-02-14T10:27:36;1.40;;;1.00;;
291;SDS011;23311;48.776;9.162;2024-02-14T10:30:05;3.20;;;1.27;;
291;SDS011;23311;48.776;9.162;2024-02-14T10:32:36;3.20;;;1.23;;
291;SDS011;23311;48.776;9.162;2024-02-14T10:35:06;2.67;;;1.23;;
291;SDS011;23311;48.776;9.162;2024-02-14T10:37:35;2.73;;;1.47;;
291;SDS011;23311;48.776;9.162;2024-02-14T10:40:06;2.10;;;1.10;;
291;SDS011;23311;48.776;9.162;2024-02-14T10:42:35;3.77;;;1.27;;
291;SDS011;23311;48.776;9.162;2024-02-14T10:45:04;1.83;;;1.10;;
291;SDS011;23311;48.776;9.162;2024-02-14T10:47:45;1.50;;;0.80;;
291;SDS011;23311;48.776;9.162;2024-02-14T10:50:15;2.47;;;1.40;;
291;SDS011;23311;48.776;9.162;2024-02-14T10:52:44;2.07;;;1.27;;
291;SDS011;23311;48.776;9.162;2024-02-14T10:55:17;1.57;;;1.00;;
291;SDS011;23311;48.776;9.162;2024-02-14T10:57:46;1.57;;;1.00;;
291;SDS011;23311;48.776;9.162;2024-02-14T11:00:16;2.30;;;1.47;;
291;SDS011;23311;48.776;9.162;2024-02-14T11:02:45;1.47;;;0.90;;
291;SDS011;23311;48.776;9.162;2024-02-14T11:05:15;1.30;;;0.83;;
291;SDS011;23311;48.776;9.162;2024-02-14T11:07:44;3.73;;;1.37;;
291;SDS011;23311;48.776;9.162;2024-02-14T11:10:13;1.50;;;0.80;;
291;SDS011;23311;48.776;9.162;2024-02-14T11:12:46;2.87;;;0.97;;
291;SDS011;23311;48.776;9.162;2024-02-14T11:15:16;1.90;;;1.20;;
291;SDS011;23311;48.776;9.162;2024-02-14T11:17:46;4.57;;;1.67;;
291;SDS011;23311;48.776;9.162;2024-02-14T11:20:16;1.80;;;1.20;;
291;SDS011;23311;48.776;9.162;2024-02-14T11:22:55;2.23;;;1.23;;
291;SDS011;23311;48.776;9.162;2024-02-14T11:25:28;3.00;;;1.07;;
291;SDS011;23311;48.776;9.162;2024-02-14T11:28:12;1.83;;;0.70;;
291;SDS011;23311;48.776;9.162;2024-02-14T11:30:41;1.50;;;1.00;;
291;SDS011;23311;48.776;9.162;2024-02-14T11:33:14;3.63;;;1.33;;
291;SDS011;23311;48.776;9.162;2024-02-14T11:35:45;2.23;;;0.90;;
291;SDS011;23311;48.776;9.162;2024-02-14T11:38:14;3.10;;;0.60;;
291;SDS011;23311;48.776;9.162;2024-02-14T11:40:42;1.73;;;1.00;;
291;SDS011;23311;48.776;9.162;2024-02-14T11:43:13;1.40;;;0.77;;
291;SDS011;23311;48.776;9.162;2024-02-14T11:45:42;3.13;;;0.80;;
291;SDS011;23311;48.776;9.162;2024-02-14T11:48:12;2.33;;;1.17;;
291;SDS011;23311;48.776;9.162;2024-02-14T11:50:42;4.00;;;1.37;;
291;SDS011;23311;48.776;9.162;2024-02-14T11:53:12;1.10;;;0.73;;
291;SDS011;23311;48.776;9.162;2024-02-14T11:55:43;3.60;;;0.77;;
291;SDS011;23311;48.776;9.162;2024-02-14T11:58:15;3.90;;;1.90;;
291;SDS011;23311;48.776;9.162;2024-02-14T12:00:44;1.63;;;0.90;;
291;SDS011;23311;48.776;9.162;2024-02-14T12:03:16;1.60;;;1.00;;
291;SDS011;23311;48.776;9.162;2024-02-14T12:05:47;2.67;;;0.80;;
291;SDS011;23311;48.776;9.162;2024-02-14T12:08:18;4.40;;;1.03;;
291;SDS011;23311;48.776;9.162;2024-02-14T12:10:47;4.00;;;0.87;;
291;SDS011;23311;48.776;9.162;2024-02-14T12:13:19;2.97;;;0.80;;
291;SDS011;23311;48.776;9.162;2024-02-14T12:15:49;1.13;;;0.60;;
291;SDS011;23311;48.776;9.162;2024-02-14T12:18:20;1.97;;;0.63;;
291;SDS011;23311;48.776;9.162;2024-02-14T12:20:49;1.70;;;0.90;;
291;SDS011;23311;48.776;9.162;2024-02-14T12:23:22;1.30;;;0.80;;
291;SDS011;23311;48.776;9.162;2024-02-14T12:25:53;1.33;;;0.60;;
291;SDS011;23311;48.776;9.162;2024-02-14T12:28:22;1.20;;;0.77;;
291;SDS011;23311;48.776;9.162;2024-02-14T12:30:51;1.60;;;0.90;;
291;SDS011;23311;48.776;9.162;2024-02-14T12:33:23;0.90;;;0.50;;
291;SDS011;23311;48.776;9.162;2024-02-14T12:35:53;1.73;;;1.07;;
291;SDS011;23311;48.776;9.162;2024-02-14T12:38:23;1.40;;;0.53;;
291;SDS011;23311;48.776;9.162;2024-02-14T12:40:51;1.60;;;0.60;;
291;SDS011;23311;48.776;9.162;2024-02-14T12:43:20;1.93;;;0.60;;
291;SDS011;23311;48.776;9.162;2024-02-14T12:45:50;1.30;;;0.77;;
291;SDS011;23311;48.776;9.162;2024-02-14T12:48:21;1.53;;;0.60;;
291;SDS011;23311;48.776;9.162;2024-02-14T12:50:53;1.13;;;0.40;;
291;SDS011;23311;48.776;9.162;2024-02-14T12:53:23;1.70;;;0.60;;
291;SDS011;23311;48.776;9.162;2024-02-14T12:55:51;1.30;;;0.60;;
291;SDS011;23311;48.776;9.162;2024-02-14T12:58:19;1.20;;;0.60;;
291;SDS011;23311;48.776;9.162;2024-02-14T13:00:49;2.03;;;0.60;;
291;SDS011;23311;48.776;9.162;2024-02-14T13:03:17;1.83;;;0.60;;
291;SDS011;23311;48.776;9.162;2024-02-14T13:05:46;1.10;;;0.57;;
291;SDS011;23311;48.776;9.162;2024-02-14T13:08:14;1.47;;;0.80;;
291;SDS011;23311;48.776;9.162;2024-02-14T13:10:43;2.20;;;0.70;;
291;SDS011;23311;48.776;9.162;2024-02-14T13:13:12;1.90;;;0.70;;
291;SDS011;23311;48.776;9.162;2024-02-14T13:15:41;1.20;;;0.70;;
291;SDS011;23311;48.776;9.162;2024-02-14T13:18:12;1.87;;;0.77;;
291;SDS011;23311;48.776;9.162;2024-02-14T13:20:41;1.73;;;0.50;;
291;SDS011;23311;48.776;9.162;2024-02-14T13:23:11;1.40;;;0.70;;
291;SDS011;23311;48.776;9.162;2024-02-14T13:25:41;2.30;;;1.00;;
291;SDS011;23311;48.776;9.162;2024-02-14T13:28:09;2.27;;;0.70;;
291;SDS011;23311;48.776;9.162;2024-02-14T13:30:37;1.63;;;0.80;;
291;SDS011;23311;48.776;9.162;2024-02-14T13:33:06;1.80;;;0.90;;
291;SDS011;23311;48.776;9.162;2024-02-14T13:35:38;1.07;;;0.60;;
291;SDS011;23311;48.776;9.162;2024-02-14T13:38:06;1.13;;;0.50;;
291;SDS011;23311;48.776;9.162;2024-02-14T13:40:36;2.40;;;0.70;;
291;SDS011;23311;48.776;9.162;2024-02-14T13:43:04;1.20;;;0.57;;
291;SDS011;23311;48.776;9.162;2024-02-14T13:45:40;2.30;;;0.60;;
291;SDS011;23311;48.776;9.162;2024-02-14T13:48:10;1.10;;;0.57;;
291;SDS011;23311;48.776;9.162;2024-02-14T13:50:40;1.53;;;0.50;;
291;SDS011;23311;48.776;9.162;2024-02-14T13:53:09;1.23;;;0.50;;
291;SDS011;23311;48.776;9.162;2024-02-14T13:55:37;1.00;;;0.40;;
291;SDS011;23311;48.776;9.162;2024-02-14T13:58:06;0.90;;;0.50;;
291;SDS011;23311;48.776;9.162;2024-02-14T14:00:40;2.70;;;0.50;;
291;SDS011;23311;48.776;9.162;2024-02-14T14:03:09;1.47;;;0.40;;
291;SDS011;23311;48.776;9.162;2024-02-14T14:05:38;0.80;;;0.40;;
291;SDS011;23311;48.776;9.162;2024-02-14T14:08:08;1.50;;;0.53;;
291;SDS011;23311;48.776;9.162;2024-02-14T14:10:36;1.70;;;0.87;;
291;SDS011;23311;48.776;9.162;2024-02-14T14:13:04;1.10;;;0.47;;
291;SDS011;23311;48.776;9.162;2024-02-14T14:15:33;1.30;;;0.50;;
291;SDS011;23311;48.776;9.162;2024-02-14T14:18:01;1.90;;;0.60;;
291;SDS011;23311;48.776;9.162;2024-02-14T14:20:30;1.13;;;0.60;;
291;SDS011;23311;48.776;9.162;2024-02-14T14:22:58;1.17;;;0.50;;
291;SDS011;23311;48.776;9.162;2024-02-14T14:25:28;1.67;;;0.60;;
291;SDS011;23311;48.776;9.162;2024-02-14T14:27:57;0.87;;;0.40;;
291;SDS011;23311;48.776;9.162;2024-02-14T14:30:29;1.43;;;0.90;;
291;SDS011;23311;48.776;9.162;2024-02-14T14:32:57;1.00;;;0.50;;
291;SDS011;23311;48.776;9.162;2024-02-14T14:35:26;1.33;;;0.60;;
291;SDS011;23311;48.776;9.162;2024-02-14T14:37:55;1.80;;;0.60;;
291;SDS011;23311;48.776;9.162;2024-02-14T14:40:23;1.00;;;0.60;;
291;SDS011;23311;48.776;9.162;2024-02-14T14:42:53;1.57;;;0.50;;
291;SDS011;23311;48.776;9.162;2024-02-14T14:45:21;2.63;;;0.53;;
291;SDS011;23311;48.776;9.162;2024-02-14T14:47:49;1.10;;;0.67;;
291;SDS011;23311;48.776;9.162;2024-02-14T14:50:17;1.97;;;0.70;;
291;SDS011;23311;48.776;9.162;2024-02-14T14:52:47;1.10;;;0.70;;
291;SDS011;23311;48.776;9.162;2024-02-14T14:55:15;0.90;;;0.43;;
291;SDS011;23311;48.776;9.162;2024-02-14T14:57:44;2.60;;;0.90;;
291;SDS011;23311;48.776;9.162;2024-02-14T15:00:14;1.53;;;0.83;;
291;SDS011;23311;48.776;9.162;2024-02-14T15:02:43;1.50;;;0.50;;
291;SDS011;23311;48.776;9.162;2024-02-14T15:05:12;2.60;;;0.87;;
291;SDS011;23311;48.776;9.162;2024-02-14T15:07:40;2.30;;;0.80;;
291;SDS011;23311;48.776;9.162;2024-02-14T15:10:08;1.87;;;0.70;;
291;SDS011;23311;48.776;9.162;2024-02-14T15:12:37;1.00;;;0.50;;
291;SDS011;23311;48.776;9.162;2024-02-14T15:15:05;2.37;;;1.00;;
291;SDS011;23311;48.776;9.162;2024-02-14T15:17:36;4.70;;;0.80;;
291;SDS011;23311;48.776;9.162;2024-02-14T15:20:06;2.20;;;0.80;;
291;SDS011;23311;48.776;9.162;2024-02-14T15:22:34;2.20;;;1.17;;
291;SDS011;23311;48.776;9.162;2024-02-14T15:25:03;2.63;;;0.80;;
291;SDS011;23311;48.776;9.162;2024-02-14T15:27:32;1.40;;;0.80;;
291;SDS011;23311;48.776;9.162;2024-02-14T15:30:03;1.20;;;0.50;;
291;SDS011;23311;48.776;9.162;2024-02-14T15:32:50;1.40;;;0.60;;
291;SDS011;23311;48.776;9.162;2024-02-14T15:35:39;1.57;;;0.67;;
291;SDS011;23311;48.776;9.162;2024-02-14T15:38:08;9.27;;;1.00;;